createdAt,value
2023-02-27T00:02:13.109Z,99877.91
2023-02-27T00:04:39.808Z,99877.09
2023-02-27T00:07:07.402Z,99883.44
2023-02-27T00:09:34.095Z,99881.81
2023-02-27T00:12:00.731Z,99876.75
2023-02-27T00:14:27.490Z,99882.28
2023-02-27T00:16:54.448Z,99876.25
2023-02-27T00:19:21.998Z,99879.97
2023-02-27T00:21:48.570Z,99876.38
2023-02-27T00:24:15.264Z,99882.13
2023-02-27T00:26:42.135Z,99887.47
2023-02-27T00:29:08.755Z,99887.88
2023-02-27T00:31:35.382Z,99891.53
2023-02-27T00:34:02.203Z,99884.28
2023-02-27T00:36:29.351Z,99891.66
2023-02-27T00:38:56.073Z,99892.03
2023-02-27T00:41:22.659Z,99896.81
2023-02-27T00:43:49.297Z,99897.69
2023-02-27T00:46:17.427Z,99897.94
2023-02-27T00:48:44.129Z,99891.53
2023-02-27T00:51:10.815Z,99899.25
2023-02-27T00:53:37.416Z,99890.91
2023-02-27T00:56:04.634Z,99898.00
2023-02-27T00:58:31.366Z,99894.94
2023-02-27T01:01:00.328Z,99892.41
2023-02-27T01:03:26.936Z,99886.72
2023-02-27T01:05:53.802Z,99899.31
2023-02-27T01:08:20.892Z,99888.63
2023-02-27T01:10:47.552Z,99902.03
2023-02-27T01:13:14.228Z,99900.22
2023-02-27T01:15:40.872Z,99899.47
2023-02-27T01:18:07.596Z,99896.13
2023-02-27T01:20:34.191Z,99888.38
2023-02-27T01:23:01.148Z,99888.63
2023-02-27T01:25:27.724Z,99891.69
2023-02-27T01:27:54.496Z,99894.66
2023-02-27T01:30:21.375Z,99898.94
2023-02-27T01:32:48.080Z,99893.03
2023-02-27T01:35:14.849Z,99899.78
2023-02-27T01:37:41.801Z,99897.13
2023-02-27T01:40:11.504Z,99904.03
2023-02-27T01:42:38.173Z,99902.63
2023-02-27T01:45:28.737Z,99907.94
2023-02-27T01:48:39.802Z,99907.13
2023-02-27T01:51:13.458Z,99904.59
2023-02-27T01:53:41.970Z,99913.81
2023-02-27T01:56:16.446Z,99906.97
2023-02-27T01:58:43.475Z,99905.72
2023-02-27T02:01:10.339Z,99909.28
2023-02-27T02:03:48.945Z,99905.47
2023-02-27T02:06:15.921Z,99908.91
2023-02-27T02:08:45.618Z,99904.69
2023-02-27T02:11:14.149Z,99901.94
2023-02-27T02:13:41.640Z,99916.25
2023-02-27T02:16:54.955Z,99923.88
2023-02-27T02:20:06.430Z,99925.25
2023-02-27T02:23:03.200Z,99919.66
2023-02-27T02:26:11.826Z,99923.56
2023-02-27T02:29:30.081Z,99922.84
2023-02-27T02:32:15.080Z,99915.34
2023-02-27T02:35:19.273Z,99921.66
2023-02-27T02:38:04.603Z,99930.03
2023-02-27T02:41:03.904Z,99924.38
2023-02-27T02:43:49.033Z,99922.91
2023-02-27T02:46:31.364Z,99911.63
2023-02-27T02:49:11.897Z,99915.34
2023-02-27T02:52:01.674Z,99919.63
2023-02-27T02:54:48.616Z,99917.47
2023-02-27T02:57:20.009Z,99918.75
2023-02-27T03:00:10.971Z,99915.66
2023-02-27T03:02:46.784Z,99917.06
2023-02-27T03:05:33.092Z,99921.44
2023-02-27T03:08:04.471Z,99918.38
2023-02-27T03:10:50.118Z,99915.66
2023-02-27T03:13:29.635Z,99915.91
2023-02-27T03:16:21.859Z,99918.53
2023-02-27T03:18:59.104Z,99927.28
2023-02-27T03:21:47.066Z,99918.84
2023-02-27T03:24:19.973Z,99920.41
2023-02-27T03:26:48.249Z,99925.84
2023-02-27T03:29:42.768Z,99927.13
2023-02-27T03:32:21.578Z,99921.63
2023-02-27T03:34:48.432Z,99929.72
2023-02-27T03:38:02.826Z,99931.50
2023-02-27T03:40:37.063Z,99925.16
2023-02-27T03:43:41.929Z,99939.16
2023-02-27T03:46:17.970Z,99936.84
2023-02-27T03:48:45.997Z,99934.69
2023-02-27T03:51:14.879Z,99938.34
2023-02-27T03:53:51.105Z,99936.75
2023-02-27T03:56:21.660Z,99936.84
2023-02-27T03:58:48.289Z,99948.56
2023-02-27T04:01:14.905Z,99956.00
2023-02-27T04:03:45.970Z,99957.69
2023-02-27T04:06:31.164Z,99947.16
2023-02-27T04:09:09.108Z,99961.19
2023-02-27T04:12:04.168Z,99958.81
2023-02-27T04:15:17.064Z,99965.56
2023-02-27T04:18:01.907Z,99960.16
2023-02-27T04:20:39.508Z,99963.69
2023-02-27T04:23:34.595Z,99962.19
2023-02-27T04:26:37.034Z,99962.06
2023-02-27T04:29:33.408Z,99963.63
2023-02-27T04:32:03.703Z,99961.31
2023-02-27T04:34:39.328Z,99966.91
2023-02-27T04:37:16.071Z,99975.50
2023-02-27T04:40:08.200Z,99981.59
2023-02-27T04:42:38.749Z,99987.63
2023-02-27T04:45:08.596Z,99983.47
2023-02-27T04:47:40.828Z,99979.94
2023-02-27T04:50:14.540Z,99991.16
2023-02-27T04:52:45.274Z,99991.94
2023-02-27T04:55:25.594Z,99991.81
2023-02-27T04:57:57.883Z,100000.09
2023-02-27T05:00:25.802Z,100000.97
2023-02-27T05:02:56.878Z,99996.59
2023-02-27T05:05:26.693Z,99993.88
2023-02-27T05:08:21.690Z,100004.19
2023-02-27T05:10:59.112Z,99999.38
2023-02-27T05:13:32.647Z,100005.50
2023-02-27T05:16:10.109Z,100011.41
2023-02-27T05:18:37.290Z,100010.22
2023-02-27T05:21:16.380Z,100016.94
2023-02-27T05:23:56.495Z,100000.69
2023-02-27T05:27:02.591Z,100016.09
2023-02-27T05:29:36.821Z,100015.06
2023-02-27T05:32:28.676Z,100027.63
2023-02-27T05:35:20.567Z,100011.19
2023-02-27T05:37:52.342Z,100024.78
2023-02-27T05:40:23.647Z,100021.22
2023-02-27T05:43:00.730Z,100021.78
2023-02-27T05:45:30.049Z,100020.03
2023-02-27T05:48:01.139Z,100022.41
2023-02-27T05:50:31.007Z,100021.44
2023-02-27T05:53:00.633Z,100029.03
2023-02-27T05:55:32.945Z,100026.38
2023-02-27T05:58:27.068Z,100026.06
2023-02-27T06:01:05.693Z,100025.75
2023-02-27T06:03:34.495Z,100026.56
2023-02-27T06:06:03.834Z,100028.16
2023-02-27T06:08:30.554Z,100015.91
2023-02-27T06:10:57.310Z,100019.38
2023-02-27T06:13:24.631Z,100029.59
2023-02-27T06:15:51.169Z,100026.88
2023-02-27T06:18:18.758Z,100026.50
2023-02-27T06:20:46.702Z,100035.31
2023-02-27T06:23:14.105Z,100037.50
2023-02-27T06:25:42.403Z,100033.28
2023-02-27T06:28:09.983Z,100039.66
2023-02-27T06:30:37.051Z,100037.38
2023-02-27T06:33:04.348Z,100036.22
2023-02-27T06:35:31.309Z,100038.03
2023-02-27T06:37:58.035Z,100042.81
2023-02-27T06:40:25.080Z,100047.91
2023-02-27T06:42:51.845Z,100039.66
2023-02-27T06:45:18.886Z,100042.22
2023-02-27T06:47:45.723Z,100048.91
2023-02-27T06:50:13.520Z,100049.38
2023-02-27T06:52:40.520Z,100045.47
2023-02-27T06:55:08.927Z,100045.47
2023-02-27T06:57:36.354Z,100047.25
2023-02-27T07:00:04.785Z,100047.78
2023-02-27T07:02:31.846Z,100052.00
2023-02-27T07:04:58.530Z,100046.88
2023-02-27T07:07:34.791Z,100058.81
2023-02-27T07:10:05.578Z,100058.69
2023-02-27T07:12:32.203Z,100065.53
2023-02-27T07:14:59.251Z,100060.38
2023-02-27T07:17:26.100Z,100056.72
2023-02-27T07:19:52.894Z,100066.84
2023-02-27T07:22:19.684Z,100058.13
2023-02-27T07:24:46.385Z,100058.75
2023-02-27T07:27:13.032Z,100061.28
2023-02-27T07:29:39.666Z,100064.56
2023-02-27T07:32:06.461Z,100060.91
2023-02-27T07:34:33.243Z,100062.97
2023-02-27T07:36:59.988Z,100056.19
2023-02-27T07:39:26.878Z,100071.13
2023-02-27T07:41:53.473Z,100062.94
2023-02-27T07:44:20.078Z,100072.72
2023-02-27T07:46:47.621Z,100064.44
2023-02-27T07:49:14.569Z,100074.16
2023-02-27T07:51:41.413Z,100070.09
2023-02-27T07:54:08.348Z,100069.75
2023-02-27T07:56:35.037Z,100066.75
2023-02-27T07:59:01.759Z,100069.72
2023-02-27T08:01:28.737Z,100064.31
2023-02-27T08:03:56.629Z,100060.78
2023-02-27T08:06:24.135Z,100071.53
2023-02-27T08:08:51.905Z,100076.75
2023-02-27T08:11:19.219Z,100074.75
2023-02-27T08:14:02.936Z,100077.66
2023-02-27T08:16:31.599Z,100077.56
2023-02-27T08:18:59.262Z,100083.56
2023-02-27T08:21:26.763Z,100089.84
2023-02-27T08:23:54.705Z,100085.59
2023-02-27T08:26:21.606Z,100094.41
2023-02-27T08:28:48.478Z,100082.00
2023-02-27T08:31:15.333Z,100079.44
2023-02-27T08:33:42.128Z,100087.91
2023-02-27T08:36:10.590Z,100084.75
2023-02-27T08:38:39.442Z,100095.41
2023-02-27T08:41:06.068Z,100098.78
2023-02-27T08:43:33.075Z,100094.50
2023-02-27T08:46:00.012Z,100099.69
2023-02-27T08:48:26.722Z,100096.44
2023-02-27T08:50:53.520Z,100098.19
2023-02-27T08:53:20.205Z,100095.72
2023-02-27T08:55:53.991Z,100104.53
2023-02-27T08:58:20.892Z,100097.59
2023-02-27T09:00:47.461Z,100088.91
2023-02-27T09:03:14.150Z,100097.13
2023-02-27T09:05:42.156Z,100095.63
2023-02-27T09:08:08.861Z,100101.69
2023-02-27T09:10:35.597Z,100097.41
2023-02-27T09:13:02.464Z,100102.31
2023-02-27T09:15:30.325Z,100108.31
2023-02-27T09:18:02.599Z,100096.44
2023-02-27T09:20:31.929Z,100109.22
2023-02-27T09:22:59.857Z,100113.25
2023-02-27T09:25:27.278Z,100105.00
2023-02-27T09:27:54.122Z,100104.31
2023-02-27T09:30:20.944Z,100116.44
2023-02-27T09:32:47.790Z,100121.41
2023-02-27T09:35:16.064Z,100119.47
2023-02-27T09:37:44.067Z,100117.50
2023-02-27T09:40:25.861Z,100123.81
2023-02-27T09:42:54.703Z,100116.28
2023-02-27T09:45:24.445Z,100127.66
2023-02-27T09:47:54.063Z,100124.69
2023-02-27T09:50:50.297Z,100114.84
2023-02-27T09:53:37.574Z,100119.19
2023-02-27T09:56:08.332Z,100116.81
2023-02-27T09:59:09.445Z,100119.75
2023-02-27T10:02:08.833Z,100114.34
2023-02-27T10:04:54.439Z,100120.56
2023-02-27T10:07:37.160Z,100109.38
2023-02-27T10:10:09.929Z,100123.31
2023-02-27T10:12:49.230Z,100113.72
2023-02-27T10:15:26.688Z,100113.56
2023-02-27T10:17:57.022Z,100115.06
2023-02-27T10:20:29.702Z,100115.59
2023-02-27T10:22:59.929Z,100112.59
2023-02-27T10:25:31.555Z,100120.88
2023-02-27T10:28:18.241Z,100119.41
2023-02-27T10:30:52.814Z,100116.78
2023-02-27T10:33:28.593Z,100127.59
2023-02-27T10:35:58.403Z,100118.78
2023-02-27T10:38:34.467Z,100127.66
2023-02-27T10:41:02.485Z,100118.16
2023-02-27T10:43:29.650Z,100120.25
2023-02-27T10:45:56.817Z,100127.31
2023-02-27T10:48:23.921Z,100126.72
2023-02-27T10:50:53.887Z,100129.31
2023-02-27T10:53:25.702Z,100128.06
2023-02-27T10:56:04.222Z,100121.25
2023-02-27T10:58:34.637Z,100124.88
2023-02-27T11:01:04.417Z,100125.19
2023-02-27T11:03:39.316Z,100123.19
2023-02-27T11:06:34.062Z,100120.78
2023-02-27T11:09:24.159Z,100117.56
2023-02-27T11:11:51.954Z,100114.69
2023-02-27T11:14:29.494Z,100112.66
2023-02-27T11:17:05.042Z,100102.50
2023-02-27T11:19:37.100Z,100110.84
2023-02-27T11:22:07.224Z,100113.84
2023-02-27T11:24:34.366Z,100114.91
2023-02-27T11:27:18.001Z,100112.44
2023-02-27T11:30:27.775Z,100104.44
2023-02-27T11:32:57.348Z,100101.50
2023-02-27T11:35:38.844Z,100107.38
2023-02-27T11:38:19.012Z,100092.88
2023-02-27T11:40:54.622Z,100106.56
2023-02-27T11:43:24.421Z,100092.88
2023-02-27T11:46:05.178Z,100096.50
2023-02-27T11:48:51.111Z,100085.91
2023-02-27T11:51:29.724Z,100090.34
2023-02-27T11:54:06.553Z,100088.34
2023-02-27T11:56:40.342Z,100084.16
2023-02-27T11:59:18.228Z,100074.28
2023-02-27T12:02:25.802Z,100079.06
2023-02-27T12:04:57.075Z,100084.47
2023-02-27T12:07:34.027Z,100074.72
2023-02-27T12:10:27.482Z,100078.22
2023-02-27T12:13:04.533Z,100079.31
2023-02-27T12:15:56.233Z,100079.25
2023-02-27T12:18:38.074Z,100073.44
2023-02-27T12:21:07.891Z,100069.72
2023-02-27T12:23:40.818Z,100075.41
2023-02-27T12:26:11.830Z,100070.63
2023-02-27T12:29:34.067Z,100069.53
2023-02-27T12:32:03.657Z,100071.75
2023-02-27T12:34:39.384Z,100072.13
2023-02-27T12:37:11.332Z,100070.09
2023-02-27T12:39:38.874Z,100066.06
2023-02-27T12:42:27.496Z,100067.41
2023-02-27T12:45:43.095Z,100065.03
2023-02-27T12:48:42.805Z,100061.75
2023-02-27T12:51:21.474Z,100062.06
2023-02-27T12:54:20.145Z,100058.72
2023-02-27T12:57:25.616Z,100061.25
2023-02-27T13:00:00.321Z,100062.84
2023-02-27T13:02:47.564Z,100058.63
2023-02-27T13:05:39.421Z,100064.84
2023-02-27T13:08:39.556Z,100068.19
2023-02-27T13:11:32.873Z,100066.78
2023-02-27T13:14:15.595Z,100071.00
2023-02-27T13:16:46.941Z,100077.56
2023-02-27T13:19:24.683Z,100075.78
2023-02-27T13:21:55.125Z,100072.28
2023-02-27T13:24:27.231Z,100065.56
2023-02-27T13:27:01.225Z,100065.38
2023-02-27T13:29:37.697Z,100061.34
2023-02-27T13:32:21.612Z,100066.78
2023-02-27T13:34:57.789Z,100061.44
2023-02-27T13:37:24.754Z,100070.69
2023-02-27T13:39:53.614Z,100064.53
2023-02-27T13:42:46.628Z,100066.50
2023-02-27T13:46:07.476Z,100066.34
2023-02-27T13:48:40.336Z,100066.94
2023-02-27T13:51:10.953Z,100063.59
2023-02-27T13:53:38.113Z,100069.97
2023-02-27T13:56:24.024Z,100062.59
2023-02-27T13:58:51.279Z,100070.91
2023-02-27T14:01:24.136Z,100073.25
2023-02-27T14:03:56.798Z,100064.81
2023-02-27T14:06:27.531Z,100074.13
2023-02-27T14:09:08.802Z,100070.94
2023-02-27T14:11:41.031Z,100061.06
2023-02-27T14:14:10.006Z,100065.31
2023-02-27T14:16:55.039Z,100067.72
2023-02-27T14:19:48.318Z,100071.44
2023-02-27T14:22:35.273Z,100071.38
2023-02-27T14:25:08.803Z,100070.91
2023-02-27T14:27:50.321Z,100063.72
2023-02-27T14:30:51.439Z,100072.69
2023-02-27T14:33:39.549Z,100070.59
2023-02-27T14:36:29.703Z,100063.84
2023-02-27T14:39:00.271Z,100066.78
2023-02-27T14:41:52.734Z,100073.03
2023-02-27T14:44:21.951Z,100073.03
2023-02-27T14:46:49.697Z,100070.06
2023-02-27T14:49:18.280Z,100076.88
2023-02-27T14:51:45.479Z,100076.34
2023-02-27T14:54:21.022Z,100080.53
2023-02-27T14:56:58.367Z,100075.94
2023-02-27T14:59:36.993Z,100074.81
2023-02-27T15:02:04.655Z,100076.59
2023-02-27T15:04:33.063Z,100083.06
2023-02-27T15:07:00.856Z,100078.94
2023-02-27T15:09:49.370Z,100084.81
2023-02-27T15:12:21.054Z,100082.00
2023-02-27T15:14:51.040Z,100074.03
2023-02-27T15:17:26.135Z,100077.53
2023-02-27T15:19:56.019Z,100081.38
2023-02-27T15:22:38.427Z,100091.28
2023-02-27T15:25:08.188Z,100092.31
2023-02-27T15:27:37.270Z,100091.84
2023-02-27T15:30:05.261Z,100092.13
2023-02-27T15:32:42.168Z,100088.47
2023-02-27T15:35:15.943Z,100084.41
2023-02-27T15:37:48.256Z,100089.31
2023-02-27T15:40:20.650Z,100094.09
2023-02-27T15:42:47.924Z,100086.38
2023-02-27T15:45:22.445Z,100091.84
2023-02-27T15:47:49.384Z,100089.44
2023-02-27T15:50:27.525Z,100099.13
2023-02-27T15:53:09.917Z,100093.34
2023-02-27T15:55:54.407Z,100096.56
2023-02-27T15:58:22.605Z,100092.13
2023-02-27T16:00:53.263Z,100093.50
2023-02-27T16:03:24.000Z,100099.03
2023-02-27T16:05:52.234Z,100100.34
2023-02-27T16:08:20.392Z,100103.88
2023-02-27T16:10:47.807Z,100108.19
2023-02-27T16:13:32.061Z,100110.72
2023-02-27T16:16:00.571Z,100113.75
2023-02-27T16:18:32.033Z,100107.31
2023-02-27T16:21:09.597Z,100107.81
2023-02-27T16:23:36.289Z,100116.69
2023-02-27T16:26:40.638Z,100117.53
2023-02-27T16:29:19.349Z,100115.00
2023-02-27T16:31:49.414Z,100117.50
2023-02-27T16:34:44.705Z,100114.03
2023-02-27T16:37:32.264Z,100120.94
2023-02-27T16:39:58.997Z,100117.88
2023-02-27T16:42:26.122Z,100113.94
2023-02-27T16:44:53.327Z,100115.44
2023-02-27T16:47:20.461Z,100115.34
2023-02-27T16:49:50.893Z,100119.44
2023-02-27T16:52:17.487Z,100119.13
2023-02-27T16:54:44.067Z,100126.94
2023-02-27T16:57:11.586Z,100116.91
2023-02-27T16:59:40.458Z,100127.34
2023-02-27T17:02:15.244Z,100126.41
2023-02-27T17:04:44.564Z,100128.91
2023-02-27T17:07:15.978Z,100133.50
2023-02-27T17:09:44.412Z,100133.50
2023-02-27T17:12:11.079Z,100133.50
2023-02-27T17:14:38.105Z,100135.59
2023-02-27T17:17:05.805Z,100143.44
2023-02-27T17:19:33.463Z,100130.91
2023-02-27T17:22:00.162Z,100127.28
2023-02-27T17:24:27.072Z,100141.53
2023-02-27T17:26:53.707Z,100143.91
2023-02-27T17:29:20.720Z,100138.25
2023-02-27T17:31:47.418Z,100149.16
2023-02-27T17:34:16.945Z,100147.19
2023-02-27T17:36:43.971Z,100153.53
2023-02-27T17:39:14.993Z,100160.81
2023-02-27T17:41:42.706Z,100154.44
2023-02-27T17:44:12.845Z,100160.09
2023-02-27T17:46:39.859Z,100163.81
2023-02-27T17:49:07.076Z,100160.66
2023-02-27T17:51:34.414Z,100173.88
2023-02-27T17:54:03.186Z,100178.69
2023-02-27T17:56:34.589Z,100169.59
2023-02-27T17:59:03.418Z,100185.22
2023-02-27T18:01:30.264Z,100184.66
2023-02-27T18:03:57.196Z,100187.09
2023-02-27T18:06:24.879Z,100184.56
2023-02-27T18:08:51.596Z,100183.75
2023-02-27T18:11:23.314Z,100187.25
2023-02-27T18:13:50.714Z,100192.66
2023-02-27T18:16:18.322Z,100195.31
2023-02-27T18:18:45.281Z,100187.66
2023-02-27T18:21:20.914Z,100187.59
2023-02-27T18:23:47.993Z,100191.22
2023-02-27T18:26:28.935Z,100190.97
2023-02-27T18:29:02.303Z,100185.00
2023-02-27T18:31:38.039Z,100192.13
2023-02-27T18:34:05.442Z,100186.53
2023-02-27T18:36:36.852Z,100190.50
2023-02-27T18:39:05.192Z,100186.13
2023-02-27T18:41:32.360Z,100185.81
2023-02-27T18:43:59.087Z,100190.44
2023-02-27T18:46:25.871Z,100185.94
2023-02-27T18:48:52.683Z,100187.00
2023-02-27T18:51:20.035Z,100194.03
2023-02-27T18:53:49.019Z,100195.69
2023-02-27T18:56:18.512Z,100194.47
2023-02-27T18:58:45.117Z,100194.34
2023-02-27T19:01:23.639Z,100197.41
2023-02-27T19:03:55.183Z,100193.81
2023-02-27T19:06:21.876Z,100195.16
2023-02-27T19:08:48.518Z,100199.38
2023-02-27T19:11:29.770Z,100204.31
2023-02-27T19:13:57.844Z,100205.69
2023-02-27T19:16:24.459Z,100205.59
2023-02-27T19:18:51.100Z,100209.56
2023-02-27T19:21:17.942Z,100215.63
2023-02-27T19:23:44.535Z,100212.47
2023-02-27T19:26:11.424Z,100213.13
2023-02-27T19:28:38.044Z,100214.66
2023-02-27T19:31:09.432Z,100214.53
2023-02-27T19:33:36.877Z,100214.50
2023-02-27T19:36:10.724Z,100220.06
2023-02-27T19:38:37.545Z,100212.94
2023-02-27T19:41:05.426Z,100211.16
2023-02-27T19:43:32.489Z,100212.13
2023-02-27T19:45:59.189Z,100216.63
2023-02-27T19:48:25.929Z,100214.22
2023-02-27T19:50:52.664Z,100217.91
2023-02-27T19:53:19.307Z,100217.66
2023-02-27T19:55:45.912Z,100208.75
2023-02-27T19:58:12.761Z,100211.22
2023-02-27T20:00:40.186Z,100214.50
2023-02-27T20:03:06.932Z,100218.13
2023-02-27T20:05:37.908Z,100222.44
2023-02-27T20:08:05.052Z,100208.22
2023-02-27T20:10:34.659Z,100213.22
2023-02-27T20:13:01.215Z,100216.44
2023-02-27T20:15:27.885Z,100209.88
2023-02-27T20:17:55.103Z,100215.63
2023-02-27T20:20:21.755Z,100212.56
2023-02-27T20:22:49.347Z,100213.97
2023-02-27T20:25:16.282Z,100206.50
2023-02-27T20:27:43.214Z,100202.53
2023-02-27T20:30:11.269Z,100202.50
2023-02-27T20:32:38.067Z,100200.91
2023-02-27T20:35:06.946Z,100204.50
2023-02-27T20:37:35.690Z,100205.91
2023-02-27T20:40:04.296Z,100200.91
2023-02-27T20:42:31.074Z,100206.53
2023-02-27T20:44:57.648Z,100200.50
2023-02-27T20:47:24.278Z,100198.69
2023-02-27T20:49:50.945Z,100209.97
2023-02-27T20:52:17.768Z,100204.69
2023-02-27T20:54:44.426Z,100203.88
2023-02-27T20:57:11.014Z,100203.47
2023-02-27T20:59:37.717Z,100203.28
2023-02-27T21:02:06.916Z,100207.03
2023-02-27T21:04:43.148Z,100202.88
2023-02-27T21:07:14.415Z,100197.53
2023-02-27T21:09:41.295Z,100207.25
2023-02-27T21:12:12.147Z,100207.66
2023-02-27T21:14:39.054Z,100207.66
2023-02-27T21:17:08.754Z,100202.69
2023-02-27T21:19:35.471Z,100205.75
2023-02-27T21:22:02.064Z,100199.13
2023-02-27T21:24:32.250Z,100208.41
2023-02-27T21:26:59.537Z,100203.97
2023-02-27T21:29:26.384Z,100203.19
2023-02-27T21:31:53.140Z,100216.94
2023-02-27T21:34:25.891Z,100210.81
2023-02-27T21:36:53.676Z,100205.22
2023-02-27T21:39:26.099Z,100202.81
2023-02-27T21:41:53.160Z,100209.38
2023-02-27T21:44:21.559Z,100215.13
2023-02-27T21:46:48.667Z,100212.66
2023-02-27T21:49:17.414Z,100212.91
2023-02-27T21:51:44.477Z,100210.16
2023-02-27T21:54:13.410Z,100210.38
2023-02-27T21:56:40.750Z,100206.88
2023-02-27T21:59:07.757Z,100211.31
2023-02-27T22:01:35.133Z,100214.59
2023-02-27T22:04:02.198Z,100207.06
2023-02-27T22:06:34.256Z,100211.09
2023-02-27T22:09:04.613Z,100212.59
2023-02-27T22:11:32.410Z,100208.44
2023-02-27T22:13:58.976Z,100212.81
2023-02-27T22:16:25.736Z,100213.72
2023-02-27T22:18:52.409Z,100215.41
2023-02-27T22:21:22.232Z,100215.31
2023-02-27T22:23:49.093Z,100214.22
2023-02-27T22:26:18.310Z,100218.09
2023-02-27T22:28:45.124Z,100216.75
2023-02-27T22:31:14.328Z,100221.00
2023-02-27T22:33:42.656Z,100218.81
2023-02-27T22:36:11.785Z,100222.16
2023-02-27T22:38:38.583Z,100226.38
2023-02-27T22:41:08.046Z,100225.94
2023-02-27T22:43:35.057Z,100222.84
2023-02-27T22:46:02.542Z,100230.19
2023-02-27T22:48:29.186Z,100222.56
2023-02-27T22:51:07.532Z,100226.88
2023-02-27T22:53:38.623Z,100233.72
2023-02-27T22:56:10.943Z,100234.06
2023-02-27T22:58:39.164Z,100230.53
2023-02-27T23:01:20.784Z,100229.84
2023-02-27T23:03:49.871Z,100230.88
2023-02-27T23:06:20.745Z,100234.09
2023-02-27T23:08:47.876Z,100235.38
2023-02-27T23:11:15.340Z,100237.41
2023-02-27T23:13:42.392Z,100236.44
2023-02-27T23:16:13.646Z,100229.09
2023-02-27T23:18:41.848Z,100239.06
2023-02-27T23:21:09.695Z,100232.91
2023-02-27T23:23:36.808Z,100234.50
2023-02-27T23:26:04.830Z,100241.34
2023-02-27T23:28:31.911Z,100232.00
2023-02-27T23:30:59.758Z,100232.59
2023-02-27T23:33:27.495Z,100237.00
2023-02-27T23:35:54.250Z,100238.50
2023-02-27T23:38:21.363Z,100242.16
2023-02-27T23:40:48.231Z,100243.94
2023-02-27T23:43:15.098Z,100243.13
2023-02-27T23:45:41.928Z,100244.53
2023-02-27T23:48:08.894Z,100236.25
2023-02-27T23:50:37.938Z,100235.50
2023-02-27T23:53:05.429Z,100239.78
2023-02-27T23:55:34.211Z,100243.28
2023-02-27T23:58:02.155Z,100250.22
